Time;durP1;ratioP1;P1;durP2;ratioP2;P2;SDS_P1;SDS_P2;PMS_P1;PMS_P2;Temp;Humidity;BMP_temperature;BMP_pressure;BME280_temperature;BME280_humidity;BME280_pressure;Samples;Min_cycle;Max_cycle;Signal;HPM_P1;HPM_P2
2021/08/06 00:01:18;;;;;;;10.57;3.60;;;16.80;99.90;;;;;;5073710;28;20463;-81
2021/08/06 00:03:44;;;;;;;5.35;3.25;;;16.70;99.90;;;;;;5073978;28;20032;-81
2021/08/06 00:06:09;;;;;;;10.32;4.32;;;16.70;99.90;;;;;;5073840;28;20024;-81
2021/08/06 00:08:35;;;;;;;8.55;3.85;;;16.80;99.90;;;;;;5075314;28;20032;-80
2021/08/06 00:11:02;;;;;;;13.38;4.75;;;16.80;99.90;;;;;;5071746;28;20062;-80
2021/08/06 00:13:28;;;;;;;7.93;4.50;;;16.70;99.90;;;;;;5071451;28;20058;-81
2021/08/06 00:15:54;;;;;;;8.70;4.10;;;16.70;99.90;;;;;;5071654;28;20020;-81
2021/08/06 00:18:20;;;;;;;7.95;3.50;;;16.70;99.90;;;;;;5082596;28;20031;-81
2021/08/06 00:20:45;;;;;;;7.28;3.92;;;16.60;99.90;;;;;;5073729;28;20032;-80
2021/08/06 00:23:11;;;;;;;11.32;4.03;;;16.50;99.90;;;;;;5091628;28;20024;-82
2021/08/06 00:25:37;;;;;;;7.18;4.05;;;16.50;99.90;;;;;;5067157;28;20437;-80
2021/08/06 00:28:03;;;;;;;8.10;4.15;;;16.50;99.90;;;;;;5071531;28;20086;-81
2021/08/06 00:30:29;;;;;;;9.48;4.13;;;16.50;99.90;;;;;;5071594;28;20036;-81
2021/08/06 00:32:55;;;;;;;10.88;4.10;;;16.40;99.90;;;;;;5071302;28;20028;-82
2021/08/06 00:35:21;;;;;;;10.35;4.80;;;16.40;99.90;;;;;;5072018;28;20024;-80
2021/08/06 00:37:46;;;;;;;10.63;4.28;;;16.40;99.90;;;;;;5091648;28;20050;-80
2021/08/06 00:40:13;;;;;;;16.23;3.97;;;16.40;99.90;;;;;;5073628;28;20438;-81
2021/08/06 00:42:38;;;;;;;12.02;4.28;;;16.40;99.90;;;;;;5073344;28;20031;-80
2021/08/06 00:45:05;;;;;;;12.35;4.25;;;16.40;99.90;;;;;;5073504;28;20020;-81
2021/08/06 00:47:33;;;;;;;6.13;3.92;;;16.40;99.90;;;;;;5074906;28;20484;-81
2021/08/06 00:49:58;;;;;;;11.43;3.70;;;16.40;99.90;;;;;;5071250;28;20067;-81
2021/08/06 00:52:24;;;;;;;11.10;4.18;;;16.40;99.90;;;;;;5071152;28;20037;-80
2021/08/06 00:54:50;;;;;;;4.95;3.35;;;16.30;99.90;;;;;;5071261;28;20037;-81
2021/08/06 00:57:16;;;;;;;10.88;4.30;;;16.40;99.90;;;;;;5083872;28;20496;-80
2021/08/06 00:59:42;;;;;;;9.20;4.30;;;16.30;99.90;;;;;;5077123;28;20020;-81
2021/08/06 01:02:25;;;;;;;8.60;4.68;;;16.40;99.90;;;;;;5095118;28;20121;-81
2021/08/06 01:05:08;;;;;;;9.30;4.22;;;16.40;99.90;;;;;;5095363;28;20029;-80
2021/08/06 01:07:54;;;;;;;6.55;3.67;;;16.40;99.90;;;;;;5084096;28;20024;-80
2021/08/06 01:10:23;;;;;;;19.38;4.38;;;16.40;99.90;;;;;;5074871;28;20025;-80
2021/08/06 01:12:57;;;;;;;9.98;3.78;;;16.30;99.90;;;;;;5056538;28;20117;-81
2021/08/06 01:15:24;;;;;;;13.73;4.38;;;16.30;99.90;;;;;;5056849;28;20021;-81
2021/08/06 01:17:50;;;;;;;9.68;4.30;;;16.30;99.90;;;;;;5084555;28;20392;-81
2021/08/06 01:20:21;;;;;;;15.90;4.70;;;16.40;99.90;;;;;;5095040;28;20077;-80
2021/08/06 01:22:47;;;;;;;8.93;4.35;;;16.30;99.90;;;;;;5094749;28;20012;-81
2021/08/06 01:25:15;;;;;;;7.30;4.10;;;16.20;99.90;;;;;;5094577;28;20031;-80
2021/08/06 01:27:48;;;;;;;8.00;4.15;;;16.20;99.90;;;;;;5088596;28;20068;-81
2021/08/06 01:30:14;;;;;;;7.85;4.88;;;16.20;99.90;;;;;;5074608;28;20079;-81
2021/08/06 01:32:40;;;;;;;9.75;4.57;;;16.20;99.90;;;;;;5074250;28;20031;-81
2021/08/06 01:35:08;;;;;;;10.82;5.03;;;16.10;99.90;;;;;;5056434;28;20025;-81
2021/08/06 01:37:34;;;;;;;10.77;4.40;;;16.10;99.90;;;;;;5075846;28;20107;-80
2021/08/06 01:40:03;;;;;;;6.90;4.55;;;16.20;99.90;;;;;;5076351;28;20143;-80
2021/08/06 01:43:06;;;;;;;9.15;4.65;;;16.10;99.90;;;;;;5076163;28;20435;-80
2021/08/06 01:45:37;;;;;;;8.75;4.32;;;16.10;99.90;;;;;;5092781;28;20034;-81
2021/08/06 01:48:07;;;;;;;14.70;4.88;;;16.10;99.90;;;;;;5094368;28;20389;-81
2021/08/06 01:50:37;;;;;;;15.65;4.68;;;16.10;99.90;;;;;;5094414;28;20024;-80
2021/08/06 01:53:06;;;;;;;11.02;4.40;;;16.20;99.90;;;;;;5094125;28;20032;-80
2021/08/06 01:55:41;;;;;;;12.02;4.68;;;16.20;99.90;;;;;;5093816;28;20039;-81
2021/08/06 01:58:08;;;;;;;11.02;4.90;;;16.20;99.90;;;;;;5094240;28;20042;-80
2021/08/06 02:00:35;;;;;;;9.63;4.82;;;16.30;99.90;;;;;;5094216;28;20099;-80
2021/08/06 02:03:01;;;;;;;10.15;5.03;;;16.20;99.90;;;;;;5093948;28;20028;-80
2021/08/06 02:05:27;;;;;;;7.88;4.03;;;16.30;99.90;;;;;;5093633;28;20028;-81
2021/08/06 02:07:53;;;;;;;9.80;4.75;;;16.30;99.90;;;;;;5073741;28;20066;-80
2021/08/06 02:10:19;;;;;;;9.88;4.72;;;16.30;99.90;;;;;;5073834;28;20103;-80
2021/08/06 02:12:45;;;;;;;12.50;4.75;;;16.30;99.90;;;;;;5073578;28;20553;-81
2021/08/06 02:15:12;;;;;;;8.45;4.72;;;16.30;99.90;;;;;;5055657;28;20544;-81
2021/08/06 02:17:41;;;;;;;10.85;4.28;;;16.40;99.90;;;;;;5088752;28;20040;-81
2021/08/06 02:20:08;;;;;;;13.10;4.80;;;16.40;99.90;;;;;;5094012;28;20024;-80
2021/08/06 02:22:35;;;;;;;9.43;4.13;;;16.40;99.90;;;;;;5075452;28;20534;-81
2021/08/06 02:25:03;;;;;;;16.27;5.30;;;16.40;99.90;;;;;;5075476;28;20123;-81
2021/08/06 02:27:30;;;;;;;15.88;5.40;;;16.40;99.90;;;;;;5082057;28;20409;-81
2021/08/06 02:29:58;;;;;;;6.13;4.28;;;16.40;99.90;;;;;;5073372;28;20107;-80
2021/08/06 02:32:25;;;;;;;13.88;4.78;;;16.30;99.90;;;;;;5073179;28;20025;-80
2021/08/06 02:34:52;;;;;;;16.13;5.15;;;16.30;99.90;;;;;;5073298;28;20497;-81
2021/08/06 02:37:17;;;;;;;12.60;5.22;;;16.30;99.90;;;;;;5079700;28;20082;-81
2021/08/06 02:39:43;;;;;;;15.23;4.90;;;16.30;99.90;;;;;;5075399;28;20047;-80
2021/08/06 02:42:09;;;;;;;16.88;5.10;;;16.20;99.90;;;;;;5093257;28;20073;-80
2021/08/06 02:44:36;;;;;;;9.10;4.22;;;16.40;99.90;;;;;;5093279;28;20438;-80
2021/08/06 02:47:02;;;;;;;13.38;4.30;;;16.30;99.90;;;;;;5091221;28;20028;-79
2021/08/06 02:49:31;;;;;;;13.43;5.75;;;16.40;99.90;;;;;;5073007;28;20063;-80
2021/08/06 02:51:58;;;;;;;11.93;4.53;;;16.40;99.90;;;;;;5072688;28;20560;-80
2021/08/06 02:54:23;;;;;;;8.27;4.55;;;16.40;99.90;;;;;;5072886;28;20063;-81
2021/08/06 02:56:49;;;;;;;14.32;5.25;;;16.40;99.90;;;;;;5072753;28;20047;-81
2021/08/06 02:59:14;;;;;;;10.77;5.13;;;16.40;99.90;;;;;;5089637;28;20035;-80
2021/08/06 03:01:40;;;;;;;17.23;4.63;;;16.50;99.90;;;;;;5092859;28;20024;-80
2021/08/06 03:04:05;;;;;;;7.88;4.65;;;16.50;99.90;;;;;;5093052;28;20043;-81
2021/08/06 03:06:31;;;;;;;11.93;4.80;;;16.50;99.90;;;;;;5092881;28;20032;-81
2021/08/06 03:08:57;;;;;;;7.60;4.30;;;16.50;99.90;;;;;;5080926;28;20039;-81
2021/08/06 03:11:22;;;;;;;12.15;4.60;;;16.50;99.90;;;;;;5072339;28;20021;-80
2021/08/06 03:13:48;;;;;;;15.63;4.55;;;16.50;99.90;;;;;;5072410;28;20115;-81
2021/08/06 03:16:13;;;;;;;7.63;4.25;;;16.50;99.90;;;;;;5072554;28;20091;-81
2021/08/06 03:18:39;;;;;;;11.68;4.45;;;16.50;99.90;;;;;;5078497;28;20357;-81
2021/08/06 03:21:05;;;;;;;11.20;4.30;;;16.50;99.90;;;;;;5074062;28;20091;-80
2021/08/06 03:23:30;;;;;;;7.32;4.35;;;16.50;99.90;;;;;;5092495;28;20552;-80
2021/08/06 03:25:56;;;;;;;14.45;4.78;;;16.50;99.90;;;;;;5092402;28;20067;-80
2021/08/06 03:28:21;;;;;;;11.82;4.45;;;16.50;99.90;;;;;;5084804;28;20024;-81
2021/08/06 03:30:48;;;;;;;15.68;4.97;;;16.50;99.90;;;;;;5072313;28;20062;-80
2021/08/06 03:33:14;;;;;;;11.48;4.40;;;16.50;99.90;;;;;;5071978;28;20052;-80
2021/08/06 03:35:39;;;;;;;14.90;4.50;;;16.50;99.90;;;;;;5072115;28;20453;-80
2021/08/06 03:38:22;;;;;;;14.20;4.97;;;16.50;99.90;;;;;;5073844;28;20024;-80
2021/08/06 03:40:49;;;;;;;9.38;3.88;;;16.50;99.90;;;;;;5072062;28;20021;-81
2021/08/06 03:43:15;;;;;;;10.98;4.28;;;16.50;99.90;;;;;;5071938;28;20374;-80
2021/08/06 03:45:41;;;;;;;14.98;4.85;;;16.50;99.90;;;;;;5072101;28;20024;-80
2021/08/06 03:48:07;;;;;;;6.93;4.53;;;16.50;99.90;;;;;;5071915;28;20439;-80
2021/08/06 03:50:33;;;;;;;10.95;3.88;;;16.50;99.90;;;;;;5073814;28;20103;-81
2021/08/06 03:52:59;;;;;;;10.57;4.18;;;16.50;99.90;;;;;;5091999;28;20015;-80
2021/08/06 03:55:25;;;;;;;9.82;4.93;;;16.40;99.90;;;;;;5092064;28;20032;-81
2021/08/06 03:57:52;;;;;;;7.63;4.13;;;16.50;99.90;;;;;;5092066;28;20016;-80
2021/08/06 04:00:18;;;;;;;9.60;4.53;;;16.40;99.90;;;;;;5072405;28;20479;-80
2021/08/06 04:02:44;;;;;;;8.93;4.32;;;16.40;99.90;;;;;;5091899;28;20623;-80
2021/08/06 04:05:10;;;;;;;13.07;4.43;;;16.40;99.90;;;;;;5092028;28;20031;-80
2021/08/06 04:07:44;;;;;;;12.43;4.93;;;16.50;99.90;;;;;;5091945;28;20024;-80
2021/08/06 04:10:11;;;;;;;7.40;3.90;;;16.50;99.90;;;;;;5081069;28;20032;-80
2021/08/06 04:12:37;;;;;;;17.70;4.07;;;16.40;99.90;;;;;;5071555;28;20481;-79
2021/08/06 04:15:03;;;;;;;12.90;4.28;;;16.50;99.90;;;;;;5071820;28;20040;-80
2021/08/06 04:17:29;;;;;;;11.52;4.32;;;16.40;99.90;;;;;;5071597;28;20028;-80
2021/08/06 04:19:54;;;;;;;9.75;3.83;;;16.40;99.90;;;;;;5077060;28;20491;-79
2021/08/06 04:22:20;;;;;;;7.03;4.13;;;16.30;99.90;;;;;;5091560;28;20024;-80
2021/08/06 04:24:45;;;;;;;10.30;4.72;;;16.30;99.90;;;;;;5091724;28;20086;-81
2021/08/06 04:27:11;;;;;;;7.93;4.13;;;16.20;99.90;;;;;;5091757;28;20047;-79
2021/08/06 04:29:37;;;;;;;14.60;4.95;;;16.10;99.90;;;;;;5091180;28;20421;-80
2021/08/06 04:32:02;;;;;;;7.30;4.25;;;16.10;99.90;;;;;;5072806;28;20446;-80
2021/08/06 04:34:28;;;;;;;11.40;4.97;;;16.10;99.90;;;;;;5075547;28;20060;-80
2021/08/06 04:36:54;;;;;;;11.35;4.20;;;16.10;99.90;;;;;;5075426;28;20033;-80
2021/08/06 04:39:20;;;;;;;13.15;4.75;;;16.00;99.90;;;;;;5075605;28;20384;-80
2021/08/06 04:41:46;;;;;;;16.27;5.05;;;16.00;99.90;;;;;;5090432;28;20024;-80
2021/08/06 04:44:11;;;;;;;10.25;4.53;;;15.90;99.90;;;;;;5095725;28;20480;-79
2021/08/06 04:46:37;;;;;;;13.35;5.60;;;16.00;99.90;;;;;;5095676;28;20020;-80
2021/08/06 04:49:03;;;;;;;8.70;5.20;;;16.00;99.90;;;;;;5095600;28;20396;-80
2021/08/06 04:51:29;;;;;;;22.13;4.97;;;16.20;99.90;;;;;;5084864;28;20024;-80
2021/08/06 04:53:54;;;;;;;8.90;4.40;;;16.00;99.90;;;;;;5057334;28;20089;-80
2021/08/06 04:56:20;;;;;;;11.73;4.57;;;16.20;99.90;;;;;;5075214;28;20038;-79
2021/08/06 04:58:45;;;;;;;13.43;4.53;;;16.20;99.90;;;;;;5075104;28;20024;-79
2021/08/06 05:01:11;;;;;;;23.50;5.22;;;16.30;99.90;;;;;;5076489;28;20431;-81
2021/08/06 05:03:36;;;;;;;11.20;4.57;;;16.40;99.90;;;;;;5074959;28;20066;-81
2021/08/06 05:06:02;;;;;;;12.52;4.60;;;16.50;99.90;;;;;;5074932;28;20028;-80
2021/08/06 05:08:28;;;;;;;9.27;5.00;;;16.60;99.90;;;;;;5074935;28;20021;-80
2021/08/06 05:10:54;;;;;;;12.20;4.97;;;16.60;99.90;;;;;;5074859;28;20392;-80
2021/08/06 05:13:19;;;;;;;12.13;5.53;;;16.60;99.90;;;;;;5074828;28;20092;-80
2021/08/06 05:15:45;;;;;;;13.07;5.18;;;16.70;99.90;;;;;;5074878;28;20485;-81
2021/08/06 05:18:11;;;;;;;6.38;4.63;;;16.80;99.90;;;;;;5074700;28;20025;-81
2021/08/06 05:20:36;;;;;;;10.80;4.75;;;16.60;99.90;;;;;;5074665;28;20024;-80
2021/08/06 05:23:02;;;;;;;9.45;5.25;;;16.70;99.90;;;;;;5087634;28;20028;-80
2021/08/06 05:25:28;;;;;;;7.25;3.72;;;16.80;99.90;;;;;;5094020;28;20050;-81
2021/08/06 05:27:53;;;;;;;11.68;5.13;;;16.90;99.90;;;;;;5093600;28;20098;-81
2021/08/06 05:30:22;;;;;;;13.88;4.75;;;16.90;99.90;;;;;;5093625;28;20104;-79
2021/08/06 05:32:51;;;;;;;8.00;4.47;;;17.00;99.90;;;;;;5084642;28;20040;-80
2021/08/06 05:35:18;;;;;;;12.30;5.55;;;17.20;99.90;;;;;;5073191;28;20441;-81
2021/08/06 05:37:44;;;;;;;13.65;4.45;;;17.10;99.90;;;;;;5055263;28;20052;-81
2021/08/06 05:40:10;;;;;;;9.13;4.70;;;17.20;99.90;;;;;;5073348;28;20476;-83
2021/08/06 05:42:36;;;;;;;14.55;5.28;;;17.20;99.90;;;;;;5076233;28;20039;-80
2021/08/06 05:45:02;;;;;;;10.00;4.15;;;17.30;99.90;;;;;;5093508;28;20024;-81
2021/08/06 05:47:28;;;;;;;9.10;4.93;;;17.40;99.90;;;;;;5082233;28;20024;-81
2021/08/06 05:49:54;;;;;;;10.75;4.65;;;17.50;99.90;;;;;;5073047;28;20054;-80
2021/08/06 05:52:19;;;;;;;11.40;4.40;;;17.60;99.90;;;;;;5072841;28;20094;-81
2021/08/06 05:54:45;;;;;;;15.57;5.10;;;17.70;99.90;;;;;;5091578;28;20035;-80
2021/08/06 05:57:11;;;;;;;8.75;4.40;;;17.70;99.90;;;;;;5093139;28;20090;-81
2021/08/06 05:59:36;;;;;;;9.65;3.63;;;17.80;99.90;;;;;;5093265;28;20016;-81
2021/08/06 06:02:02;;;;;;;11.95;4.25;;;17.90;99.90;;;;;;5090331;28;20016;-80
2021/08/06 06:04:27;;;;;;;6.30;4.13;;;18.00;99.90;;;;;;5080247;28;20028;-83
2021/08/06 06:06:53;;;;;;;9.32;4.40;;;18.00;99.90;;;;;;5072091;28;20036;-85
2021/08/06 06:09:19;;;;;;;7.20;4.00;;;18.20;99.90;;;;;;5081919;28;20024;-84
2021/08/06 06:11:44;;;;;;;15.40;4.57;;;18.20;99.90;;;;;;5086156;28;20031;-83
2021/08/06 06:14:10;;;;;;;11.25;4.43;;;18.30;99.90;;;;;;5056079;28;20037;-83
2021/08/06 06:16:36;;;;;;;7.65;3.85;;;18.40;99.90;;;;;;5069651;28;20032;-83
2021/08/06 06:19:02;;;;;;;8.05;4.07;;;18.40;99.90;;;;;;5052560;28;20048;-83
2021/08/06 06:21:30;;;;;;;9.07;3.88;;;18.40;99.90;;;;;;5084402;28;20151;-83
2021/08/06 06:23:58;;;;;;;11.66;4.04;;;18.50;99.90;;;;;;5008580;28;1471745;-81
2021/08/06 06:26:23;;;;;;;8.57;4.00;;;18.60;99.90;;;;;;5080211;28;20504;-81
2021/08/06 06:28:49;;;;;;;7.70;3.92;;;18.60;99.90;;;;;;5087798;28;20031;-82
2021/08/06 06:31:15;;;;;;;10.48;4.38;;;18.70;99.90;;;;;;5052615;28;20495;-82
2021/08/06 06:33:40;;;;;;;5.88;3.55;;;18.70;99.90;;;;;;5079837;28;20034;-82
2021/08/06 06:36:06;;;;;;;7.38;3.70;;;18.80;99.90;;;;;;5056842;28;20028;-82
2021/08/06 06:38:31;;;;;;;7.82;3.47;;;19.10;99.90;;;;;;5069737;28;20104;-85
2021/08/06 06:40:57;;;;;;;6.07;3.65;;;19.30;99.90;;;;;;5070941;28;20377;-81
2021/08/06 06:43:23;;;;;;;8.68;3.30;;;19.40;99.90;;;;;;5060818;28;20020;-80
2021/08/06 06:45:48;;;;;;;6.60;3.60;;;19.60;99.90;;;;;;5090425;28;20028;-82
2021/08/06 06:48:14;;;;;;;9.52;4.13;;;19.80;99.90;;;;;;5093041;28;20027;-82
2021/08/06 06:50:40;;;;;;;5.68;3.55;;;19.90;99.90;;;;;;5092708;28;20053;-82
2021/08/06 06:53:06;;;;;;;4.30;3.28;;;19.90;99.90;;;;;;5088148;28;20030;-82
2021/08/06 06:55:31;;;;;;;9.00;3.67;;;19.50;99.90;;;;;;5071973;28;20021;-82
2021/08/06 06:57:57;;;;;;;5.60;3.10;;;19.60;99.90;;;;;;5066516;28;20071;-83
2021/08/06 07:00:29;;;;;;;8.18;3.90;;;19.40;99.90;;;;;;5051647;28;20051;-81
2021/08/06 07:02:55;;;;;;;8.25;3.60;;;19.60;99.90;;;;;;5077666;28;20028;-82
2021/08/06 07:05:21;;;;;;;3.08;2.70;;;19.90;99.90;;;;;;5059258;28;20036;-82
2021/08/06 07:07:47;;;;;;;4.70;2.92;;;20.20;99.90;;;;;;5083911;28;20078;-82
2021/08/06 07:10:12;;;;;;;4.28;3.10;;;20.50;99.90;;;;;;5068419;28;20036;-80
2021/08/06 07:12:40;;;;;;;4.63;2.78;;;20.60;99.90;;;;;;5078900;28;20114;-82
2021/08/06 07:15:07;;;;;;;3.50;2.75;;;20.90;99.90;;;;;;5082113;28;20500;-81
2021/08/06 07:17:34;;;;;;;9.65;2.90;;;20.70;99.90;;;;;;5079768;28;20028;-86
2021/08/06 07:20:00;;;;;;;5.70;2.55;;;20.60;99.90;;;;;;5081621;28;20032;-83
2021/08/06 07:22:26;;;;;;;3.88;2.60;;;20.50;99.90;;;;;;5060681;28;20036;-82
2021/08/06 07:24:52;;;;;;;4.20;3.15;;;20.30;99.90;;;;;;5079267;28;20033;-83
2021/08/06 07:27:18;;;;;;;4.00;2.58;;;20.30;99.90;;;;;;5068861;28;20033;-82
2021/08/06 07:29:43;;;;;;;6.05;2.35;;;20.50;99.90;;;;;;5054241;28;20132;-81
2021/08/06 07:32:09;;;;;;;5.25;2.65;;;20.60;99.90;;;;;;5083309;28;20503;-82
2021/08/06 07:34:35;;;;;;;4.68;2.72;;;20.60;99.90;;;;;;5075823;28;20043;-81
2021/08/06 07:37:00;;;;;;;5.82;2.97;;;20.90;99.90;;;;;;5077590;28;20453;-82
2021/08/06 07:39:26;;;;;;;3.80;2.60;;;21.00;99.90;;;;;;5076292;28;21229;-81
2021/08/06 07:41:51;;;;;;;4.95;2.78;;;21.10;99.90;;;;;;5051646;28;20414;-83
2021/08/06 07:44:17;;;;;;;9.48;3.15;;;21.30;99.90;;;;;;5073184;28;20030;-80
2021/08/06 07:46:43;;;;;;;5.80;3.15;;;21.30;99.90;;;;;;5092060;28;20032;-82
2021/08/06 07:49:08;;;;;;;5.10;2.53;;;21.40;99.90;;;;;;5092270;28;20452;-79
2021/08/06 07:51:36;;;;;;;3.22;2.92;;;21.70;99.90;;;;;;5092003;28;20073;-81
2021/08/06 07:54:02;;;;;;;2.78;2.38;;;21.80;99.90;;;;;;5084929;28;20028;-81
2021/08/06 07:56:28;;;;;;;4.72;3.08;;;22.00;99.90;;;;;;5071870;28;20020;-80
2021/08/06 07:58:53;;;;;;;4.07;2.83;;;22.00;99.90;;;;;;5053677;28;20035;-79
2021/08/06 08:01:19;;;;;;;3.78;2.75;;;22.20;99.90;;;;;;5071603;28;20055;-80
2021/08/06 08:03:45;;;;;;;3.05;2.40;;;22.50;99.90;;;;;;5074400;28;20327;-81
2021/08/06 08:06:12;;;;;;;3.38;2.75;;;22.60;99.90;;;;;;5073682;28;20028;-80
2021/08/06 08:08:37;;;;;;;4.22;3.17;;;22.60;99.90;;;;;;5091709;28;20491;-80
2021/08/06 08:11:03;;;;;;;4.68;2.65;;;22.70;99.90;;;;;;5091854;28;20024;-80
2021/08/06 08:13:28;;;;;;;4.25;2.58;;;22.70;99.90;;;;;;5091523;28;20035;-80
2021/08/06 08:15:54;;;;;;;5.00;2.83;;;22.50;99.90;;;;;;5090216;28;20476;-80
2021/08/06 08:18:20;;;;;;;3.55;2.67;;;22.50;99.90;;;;;;5091676;28;20021;-81
2021/08/06 08:20:47;;;;;;;3.05;2.47;;;22.40;99.90;;;;;;5091916;28;20107;-79
2021/08/06 08:23:13;;;;;;;4.13;2.60;;;22.30;99.90;;;;;;5091956;28;20437;-80
2021/08/06 08:25:39;;;;;;;3.88;2.33;;;22.30;99.90;;;;;;5091037;28;20132;-80
2021/08/06 08:28:05;;;;;;;3.03;2.65;;;22.20;99.90;;;;;;5066322;28;20404;-80
2021/08/06 08:30:31;;;;;;;4.90;2.15;;;22.20;99.90;;;;;;5071553;28;20027;-81
2021/08/06 08:32:56;;;;;;;2.72;2.40;;;22.30;99.90;;;;;;5053275;28;20032;-81
2021/08/06 08:35:22;;;;;;;5.65;2.38;;;22.40;99.90;;;;;;5077862;28;20116;-80
2021/08/06 08:37:47;;;;;;;7.90;2.78;;;22.80;99.90;;;;;;5091664;28;20027;-79
2021/08/06 08:40:13;;;;;;;3.10;2.80;;;23.00;99.90;;;;;;5091501;28;20024;-78
2021/08/06 08:42:39;;;;;;;5.75;2.30;;;23.10;99.90;;;;;;5073297;28;20020;-78
2021/08/06 08:45:06;;;;;;;2.40;2.20;;;23.10;99.90;;;;;;5089826;28;20047;-78
2021/08/06 08:47:36;;;;;;;2.95;2.35;;;23.00;99.90;;;;;;5071146;28;20111;-78
2021/08/06 08:50:04;;;;;;;3.47;2.60;;;23.10;99.90;;;;;;5071353;28;20025;-78
2021/08/06 08:52:30;;;;;;;4.38;2.13;;;23.20;99.90;;;;;;5071061;28;20491;-78
2021/08/06 08:54:55;;;;;;;2.47;1.95;;;23.10;99.90;;;;;;5071083;28;20057;-78
2021/08/06 08:57:23;;;;;;;2.88;2.45;;;23.40;99.90;;;;;;5088477;28;20055;-79
2021/08/06 08:59:49;;;;;;;2.58;1.90;;;23.80;99.90;;;;;;5091464;28;20031;-79
2021/08/06 09:02:16;;;;;;;5.22;2.38;;;24.00;99.90;;;;;;5091290;28;20027;-79
2021/08/06 09:04:46;;;;;;;3.45;2.00;;;24.00;99.90;;;;;;5091443;28;20511;-78
2021/08/06 09:07:30;;;;;;;5.53;2.28;;;24.00;99.90;;;;;;5077763;28;20044;-79
2021/08/06 09:10:27;;;;;;;3.88;2.30;;;24.10;99.90;;;;;;5071115;28;20453;-80
2021/08/06 09:13:01;;;;;;;3.85;2.10;;;24.10;99.90;;;;;;5054963;28;20405;-82
2021/08/06 09:15:42;;;;;;;2.35;2.15;;;24.30;99.90;;;;;;5053127;28;20523;-78
2021/08/06 09:18:28;;;;;;;3.50;2.25;;;24.50;99.90;;;;;;5074743;28;20020;-79
2021/08/06 09:21:14;;;;;;;2.70;1.73;;;24.80;99.90;;;;;;5074752;28;20031;-80
2021/08/06 09:23:48;;;;;;;4.03;2.20;;;24.80;99.90;;;;;;5074583;28;20029;-79
2021/08/06 09:26:26;;;;;;;2.45;1.73;;;24.80;99.90;;;;;;5074566;28;20587;-82
2021/08/06 09:29:12;;;;;;;2.25;1.70;;;25.00;99.90;;;;;;5074591;28;20029;-82
2021/08/06 09:31:56;;;;;;;2.97;2.03;;;25.30;99.90;;;;;;5074386;28;20025;-82
2021/08/06 09:34:27;;;;;;;5.10;2.20;;;25.40;99.90;;;;;;5074412;28;20035;-83
2021/08/06 09:36:57;;;;;;;5.43;1.92;;;25.20;99.90;;;;;;5074754;28;20036;-82
2021/08/06 09:39:24;;;;;;;4.30;2.17;;;25.10;99.90;;;;;;5074452;28;20025;-83
2021/08/06 09:41:50;;;;;;;5.38;1.63;;;25.20;99.90;;;;;;5074157;28;20027;-82
2021/08/06 09:44:22;;;;;;;6.07;1.85;;;25.20;99.90;;;;;;5074153;28;20029;-83
2021/08/06 09:46:48;;;;;;;2.72;1.85;;;25.40;99.90;;;;;;5056366;28;20484;-83
2021/08/06 09:49:14;;;;;;;2.45;1.77;;;25.20;99.90;;;;;;5091625;28;20036;-87
2021/08/06 09:51:42;;;;;;;2.47;2.20;;;25.10;99.90;;;;;;5094161;28;20020;-86
2021/08/06 09:54:22;;;;;;;2.60;1.88;;;25.30;99.90;;;;;;5094424;28;20024;-85
2021/08/06 09:56:48;;;;;;;3.78;1.73;;;25.50;99.90;;;;;;5094194;28;20472;-82
2021/08/06 09:59:28;;;;;;;3.45;1.67;;;25.60;99.90;;;;;;5079309;28;20036;-84
2021/08/06 10:02:17;;;;;;;4.28;2.05;;;25.70;99.90;;;;;;5073731;28;20042;-83
2021/08/06 10:05:03;;;;;;;1.98;1.50;;;25.70;99.90;;;;;;5074025;28;20017;-87
2021/08/06 10:07:31;;;;;;;5.80;1.90;;;26.00;99.90;;;;;;5055778;28;20031;-82
2021/08/06 10:09:57;;;;;;;4.82;1.70;;;26.10;99.90;;;;;;5091223;28;20028;-82
2021/08/06 10:12:23;;;;;;;4.32;1.77;;;26.30;99.90;;;;;;5092589;28;20035;-86
2021/08/06 10:14:49;;;;;;;1.92;1.73;;;26.20;99.90;;;;;;5073037;28;20028;-84
2021/08/06 10:17:15;;;;;;;2.17;1.63;;;26.50;99.90;;;;;;5079797;28;20121;-83
2021/08/06 10:19:41;;;;;;;4.72;1.83;;;26.70;99.90;;;;;;5073702;28;20043;-83
2021/08/06 10:22:07;;;;;;;3.33;2.13;;;26.80;99.90;;;;;;5085098;28;20056;-83
2021/08/06 10:24:34;;;;;;;3.67;2.10;;;26.80;99.90;;;;;;5069807;28;20032;-83
2021/08/06 10:27:00;;;;;;;1.40;1.30;;;26.70;99.90;;;;;;5071538;28;20028;-82
2021/08/06 10:29:26;;;;;;;2.33;1.40;;;26.90;99.90;;;;;;5082669;28;20110;-82
2021/08/06 10:32:12;;;;;;;2.92;1.70;;;26.90;99.90;;;;;;5080069;28;20512;-85
2021/08/06 10:35:00;;;;;;;1.80;1.50;;;26.70;99.90;;;;;;5084612;28;20737;-81
2021/08/06 10:37:54;;;;;;;1.65;1.50;;;26.90;99.90;;;;;;5061453;28;20036;-82
2021/08/06 10:40:31;;;;;;;2.53;1.75;;;26.50;99.90;;;;;;5079332;28;20027;-81
2021/08/06 10:42:57;;;;;;;2.63;1.80;;;26.30;99.90;;;;;;5076921;28;20115;-83
2021/08/06 10:45:46;;;;;;;5.38;1.50;;;26.50;99.90;;;;;;5071510;28;20085;-83
2021/08/06 10:48:34;;;;;;;1.63;1.42;;;26.70;99.90;;;;;;5074353;28;20070;-81
2021/08/06 10:51:12;;;;;;;7.57;1.48;;;26.90;99.90;;;;;;5085637;28;20028;-82
2021/08/06 10:53:38;;;;;;;2.33;1.75;;;27.20;99.90;;;;;;5078613;28;20115;-83
2021/08/06 10:56:21;;;;;;;1.48;1.30;;;27.50;99.90;;;;;;5079735;28;20017;-82
2021/08/06 10:58:49;;;;;;;2.17;1.85;;;27.60;99.90;;;;;;5088040;28;20021;-82
2021/08/06 11:01:33;;;;;;;2.35;1.80;;;27.90;99.90;;;;;;5077069;28;20056;-82
2021/08/06 11:04:11;;;;;;;1.75;1.60;;;27.60;99.90;;;;;;5072178;28;20028;-84
2021/08/06 11:06:46;;;;;;;2.28;1.55;;;27.60;99.90;;;;;;5084071;28;20024;-80
2021/08/06 11:09:31;;;;;;;2.58;1.67;;;27.00;99.90;;;;;;5078542;28;20528;-81
2021/08/06 11:12:11;;;;;;;5.40;1.70;;;26.60;99.90;;;;;;5068200;28;20032;-80
2021/08/06 11:14:39;;;;;;;5.57;1.52;;;26.60;99.90;;;;;;5058258;28;20027;-79
2021/08/06 11:17:20;;;;;;;2.22;1.55;;;27.10;99.90;;;;;;5086959;28;20020;-80
2021/08/06 11:19:50;;;;;;;1.52;1.42;;;27.60;99.90;;;;;;5080194;28;20093;-81
2021/08/06 11:22:30;;;;;;;3.22;1.70;;;27.90;99.90;;;;;;5078050;28;20063;-80
2021/08/06 11:25:23;;;;;;;1.52;1.42;;;28.20;99.90;;;;;;5079005;28;20042;-80
2021/08/06 11:27:54;;;;;;;3.40;1.52;;;28.20;99.90;;;;;;5074239;28;20107;-80
2021/08/06 11:30:26;;;;;;;2.10;1.40;;;28.30;99.90;;;;;;5072611;28;20033;-80
2021/08/06 11:33:09;;;;;;;2.83;1.88;;;28.70;99.90;;;;;;5089668;28;20035;-80
2021/08/06 11:35:37;;;;;;;1.38;1.25;;;28.70;99.90;;;;;;5092385;28;20027;-80
2021/08/06 11:38:14;;;;;;;1.65;1.35;;;27.80;99.90;;;;;;5092398;28;20024;-79
2021/08/06 11:40:41;;;;;;;4.43;1.58;;;27.50;99.90;;;;;;5092079;28;20030;-80
2021/08/06 11:43:21;;;;;;;3.67;1.40;;;27.80;99.90;;;;;;5091642;28;20028;-80
2021/08/06 11:45:52;;;;;;;5.85;1.40;;;28.00;99.90;;;;;;5092395;28;20020;-80
2021/08/06 11:48:18;;;;;;;2.08;1.48;;;27.60;99.90;;;;;;5092364;28;20057;-80
2021/08/06 11:50:55;;;;;;;4.55;1.70;;;27.90;99.90;;;;;;5092161;28;20020;-81
2021/08/06 11:53:26;;;;;;;1.55;1.33;;;28.40;99.90;;;;;;5075622;28;20035;-80
2021/08/06 11:55:56;;;;;;;5.80;1.70;;;29.10;99.90;;;;;;5053934;28;20031;-81
2021/08/06 11:58:36;;;;;;;4.65;1.50;;;29.40;99.90;;;;;;5071875;28;20028;-80
2021/08/06 12:01:03;;;;;;;1.70;1.60;;;28.90;99.90;;;;;;5071983;28;20111;-79
2021/08/06 12:03:29;;;;;;;1.67;1.48;;;28.60;99.90;;;;;;5074130;28;20683;-81
2021/08/06 12:06:00;;;;;;;1.65;1.17;;;29.10;99.90;;;;;;5071761;28;20073;-80
2021/08/06 12:08:31;;;;;;;1.65;1.20;;;29.10;99.90;;;;;;5071827;28;20108;-80
2021/08/06 12:11:09;;;;;;;6.68;1.60;;;28.70;99.90;;;;;;5071642;28;20107;-80
2021/08/06 12:13:37;;;;;;;2.63;1.67;;;28.30;99.90;;;;;;5083354;28;20059;-79
2021/08/06 12:16:14;;;;;;;1.85;1.20;;;28.70;99.90;;;;;;5091959;28;20165;-81
2021/08/06 12:18:58;;;;;;;2.85;1.33;;;29.20;99.90;;;;;;5091655;28;20037;-80
2021/08/06 12:21:25;;;;;;;;;;;29.50;99.90;;;;;;5092412;28;20027;-79
2021/08/06 12:24:00;;;;;;;3.20;1.33;;;29.40;99.90;;;;;;5080291;28;20280;-80
2021/08/06 12:26:34;;;;;;;1.50;1.20;;;29.00;99.90;;;;;;5071543;28;20031;-80
2021/08/06 12:29:19;;;;;;;1.15;1.02;;;29.00;99.90;;;;;;5071717;28;20047;-81
2021/08/06 12:31:58;;;;;;;4.30;1.25;;;29.60;99.90;;;;;;5071347;28;20024;-77
2021/08/06 12:34:43;;;;;;;7.03;1.48;;;29.80;99.90;;;;;;5084328;28;20035;-77
2021/08/06 12:37:12;;;;;;;3.30;1.38;;;29.50;99.90;;;;;;5091119;28;20032;-80
2021/08/06 12:39:50;;;;;;;1.50;1.40;;;30.20;99.90;;;;;;5091700;28;20059;-81
2021/08/06 12:42:24;;;;;;;1.88;1.10;;;30.90;99.90;;;;;;5091735;28;20069;-81
2021/08/06 12:45:09;;;;;;;1.63;1.30;;;31.50;99.90;;;;;;5077523;28;20036;-82
2021/08/06 12:47:50;;;;;;;9.55;2.15;;;31.30;99.90;;;;;;5071271;28;20493;-80
2021/08/06 12:50:24;;;;;;;1.58;1.42;;;30.00;99.90;;;;;;5071487;28;20543;-82
2021/08/06 12:53:10;;;;;;;10.45;1.85;;;29.20;99.90;;;;;;5072200;28;20579;-82